sensor_id;sensor_type;location;lat;lon;timestamp;temperature;humidity
85456;DHT22;75846;43.732;10.404;2024-02-21T00:01:56;7.00;99.90
85456;DHT22;75846;43.732;10.404;2024-02-21T00:04:24;7.00;99.90
85456;DHT22;75846;43.732;10.404;2024-02-21T00:06:53;7.00;99.90
85456;DHT22;75846;43.732;10.404;2024-02-21T00:09:20;7.00;99.90
85456;DHT22;75846;43.732;10.404;2024-02-21T00:11:47;6.90;99.90
85456;DHT22;75846;43.732;10.404;2024-02-21T00:14:14;7.00;99.90
85456;DHT22;75846;43.732;10.404;2024-02-21T00:16:42;6.90;99.90
85456;DHT22;75846;43.732;10.404;2024-02-21T00:19:09;6.90;99.90
85456;DHT22;75846;43.732;10.404;2024-02-21T00:21:36;6.80;99.90
85456;DHT22;75846;43.732;10.404;2024-02-21T00:24:05;6.80;99.90
85456;DHT22;75846;43.732;10.404;2024-02-21T00:26:33;6.70;99.90
85456;DHT22;75846;43.732;10.404;2024-02-21T00:29:00;6.70;99.90
85456;DHT22;75846;43.732;10.404;2024-02-21T00:31:27;6.70;99.90
85456;DHT22;75846;43.732;10.404;2024-02-21T00:33:54;6.70;99.90
85456;DHT22;75846;43.732;10.404;2024-02-21T00:36:22;6.70;99.90
85456;DHT22;75846;43.732;10.404;2024-02-21T00:38:49;6.70;99.90
85456;DHT22;75846;43.732;10.404;2024-02-21T00:41:18;6.60;99.90
85456;DHT22;75846;43.732;10.404;2024-02-21T00:43:45;6.50;99.90
85456;DHT22;75846;43.732;10.404;2024-02-21T00:46:14;6.50;99.90
85456;DHT22;75846;43.732;10.404;2024-02-21T00:48:41;6.40;99.90
85456;DHT22;75846;43.732;10.404;2024-02-21T00:51:08;6.40;99.90
85456;DHT22;75846;43.732;10.404;2024-02-21T00:53:36;6.40;99.90
85456;DHT22;75846;43.732;10.404;2024-02-21T00:56:04;6.40;99.90
85456;DHT22;75846;43.732;10.404;2024-02-21T00:58:33;6.40;99.90
85456;DHT22;75846;43.732;10.404;2024-02-21T01:01:01;6.50;99.90
85456;DHT22;75846;43.732;10.404;2024-02-21T01:03:29;6.50;99.90
85456;DHT22;75846;43.732;10.404;2024-02-21T01:05:56;6.50;99.90
85456;DHT22;75846;43.732;10.404;2024-02-21T01:08:23;6.40;99.90
85456;DHT22;75846;43.732;10.404;2024-02-21T01:10:51;6.40;99.90
85456;DHT22;75846;43.732;10.404;2024-02-21T01:13:18;6.30;99.90
85456;DHT22;75846;43.732;10.404;2024-02-21T01:15:47;6.30;99.90
85456;DHT22;75846;43.732;10.404;2024-02-21T01:18:14;6.20;99.90
85456;DHT22;75846;43.732;10.404;2024-02-21T01:20:42;6.20;99.90
85456;DHT22;75846;43.732;10.404;2024-02-21T01:23:10;6.20;99.90
85456;DHT22;75846;43.732;10.404;2024-02-21T01:25:37;6.10;99.90
85456;DHT22;75846;43.732;10.404;2024-02-21T01:28:05;6.10;99.90
85456;DHT22;75846;43.732;10.404;2024-02-21T01:30:32;6.20;99.90
85456;DHT22;75846;43.732;10.404;2024-02-21T01:33:01;6.30;99.90
85456;DHT22;75846;43.732;10.404;2024-02-21T01:35:28;6.30;99.90
85456;DHT22;75846;43.732;10.404;2024-02-21T01:37:55;6.20;99.90
85456;DHT22;75846;43.732;10.404;2024-02-21T01:40:23;6.20;99.90
85456;DHT22;75846;43.732;10.404;2024-02-21T01:42:50;6.30;99.90
85456;DHT22;75846;43.732;10.404;2024-02-21T01:45:19;6.30;99.90
85456;DHT22;75846;43.732;10.404;2024-02-21T01:47:47;6.20;99.90
85456;DHT22;75846;43.732;10.404;2024-02-21T01:50:17;6.20;99.90
85456;DHT22;75846;43.732;10.404;2024-02-21T01:52:46;6.20;99.90
85456;DHT22;75846;43.732;10.404;2024-02-21T01:55:16;6.20;99.90
85456;DHT22;75846;43.732;10.404;2024-02-21T01:57:44;6.20;99.90
85456;DHT22;75846;43.732;10.404;2024-02-21T02:00:14;6.10;99.90
85456;DHT22;75846;43.732;10.404;2024-02-21T02:02:42;6.10;99.90
85456;DHT22;75846;43.732;10.404;2024-02-21T02:05:11;6.00;99.90
85456;DHT22;75846;43.732;10.404;2024-02-21T02:07:40;6.00;99.90
85456;DHT22;75846;43.732;10.404;2024-02-21T02:10:08;5.90;99.90
85456;DHT22;75846;43.732;10.404;2024-02-21T02:12:36;5.90;99.90
85456;DHT22;75846;43.732;10.404;2024-02-21T02:15:04;5.90;99.90
85456;DHT22;75846;43.732;10.404;2024-02-21T02:17:31;5.80;99.90
85456;DHT22;75846;43.732;10.404;2024-02-21T02:19:59;5.80;99.90
85456;DHT22;75846;43.732;10.404;2024-02-21T02:22:29;5.80;99.90
85456;DHT22;75846;43.732;10.404;2024-02-21T02:24:59;5.70;99.90
85456;DHT22;75846;43.732;10.404;2024-02-21T02:27:27;5.70;99.90
85456;DHT22;75846;43.732;10.404;2024-02-21T02:29:54;5.60;99.90
85456;DHT22;75846;43.732;10.404;2024-02-21T02:32:21;5.60;99.90
85456;DHT22;75846;43.732;10.404;2024-02-21T02:34:48;5.60;99.90
85456;DHT22;75846;43.732;10.404;2024-02-21T02:37:16;5.60;99.90
85456;DHT22;75846;43.732;10.404;2024-02-21T02:39:43;5.60;99.90
85456;DHT22;75846;43.732;10.404;2024-02-21T02:42:12;5.60;99.90
85456;DHT22;75846;43.732;10.404;2024-02-21T02:44:39;5.50;99.90
85456;DHT22;75846;43.732;10.404;2024-02-21T02:47:06;5.50;99.90
85456;DHT22;75846;43.732;10.404;2024-02-21T02:49:35;5.50;99.90
85456;DHT22;75846;43.732;10.404;2024-02-21T02:52:03;5.50;99.90
85456;DHT22;75846;43.732;10.404;2024-02-21T02:54:30;5.50;99.90
85456;DHT22;75846;43.732;10.404;2024-02-21T02:56:58;5.50;99.90
85456;DHT22;75846;43.732;10.404;2024-02-21T02:59:26;5.60;99.90
85456;DHT22;75846;43.732;10.404;2024-02-21T03:01:54;5.60;99.90
85456;DHT22;75846;43.732;10.404;2024-02-21T03:04:21;5.60;99.90
85456;DHT22;75846;43.732;10.404;2024-02-21T03:06:49;5.60;99.90
85456;DHT22;75846;43.732;10.404;2024-02-21T03:09:16;5.60;99.90
85456;DHT22;75846;43.732;10.404;2024-02-21T03:11:44;5.60;99.90
85456;DHT22;75846;43.732;10.404;2024-02-21T03:14:11;5.60;99.90
85456;DHT22;75846;43.732;10.404;2024-02-21T03:16:40;5.60;99.90
85456;DHT22;75846;43.732;10.404;2024-02-21T03:19:07;5.50;99.90
85456;DHT22;75846;43.732;10.404;2024-02-21T03:21:34;5.50;99.90
85456;DHT22;75846;43.732;10.404;2024-02-21T03:24:02;5.50;99.90
85456;DHT22;75846;43.732;10.404;2024-02-21T03:26:29;5.50;99.90
85456;DHT22;75846;43.732;10.404;2024-02-21T03:28:57;5.50;99.90
85456;DHT22;75846;43.732;10.404;2024-02-21T03:31:24;5.40;99.90
85456;DHT22;75846;43.732;10.404;2024-02-21T03:33:53;5.40;99.90
85456;DHT22;75846;43.732;10.404;2024-02-21T03:36:20;5.40;99.90
85456;DHT22;75846;43.732;10.404;2024-02-21T03:38:47;5.40;99.90
85456;DHT22;75846;43.732;10.404;2024-02-21T03:41:14;5.40;99.90
85456;DHT22;75846;43.732;10.404;2024-02-21T03:43:42;5.30;99.90
85456;DHT22;75846;43.732;10.404;2024-02-21T03:46:09;5.30;99.90
85456;DHT22;75846;43.732;10.404;2024-02-21T03:48:37;5.30;99.90
85456;DHT22;75846;43.732;10.404;2024-02-21T03:51:06;5.20;99.90
85456;DHT22;75846;43.732;10.404;2024-02-21T03:53:33;5.20;99.90
85456;DHT22;75846;43.732;10.404;2024-02-21T03:56:01;5.10;99.90
85456;DHT22;75846;43.732;10.404;2024-02-21T03:58:30;5.10;99.90
85456;DHT22;75846;43.732;10.404;2024-02-21T04:00:59;5.10;99.90
85456;DHT22;75846;43.732;10.404;2024-02-21T04:03:26;5.10;99.90
85456;DHT22;75846;43.732;10.404;2024-02-21T04:05:54;5.10;99.90
85456;DHT22;75846;43.732;10.404;2024-02-21T04:08:23;5.10;99.90
85456;DHT22;75846;43.732;10.404;2024-02-21T04:10:50;5.10;99.90
85456;DHT22;75846;43.732;10.404;2024-02-21T04:13:18;5.00;99.90
85456;DHT22;75846;43.732;10.404;2024-02-21T04:15:45;5.00;99.90
85456;DHT22;75846;43.732;10.404;2024-02-21T04:18:12;5.00;99.90
85456;DHT22;75846;43.732;10.404;2024-02-21T04:20:40;4.90;99.90
85456;DHT22;75846;43.732;10.404;2024-02-21T04:23:08;4.90;99.90
85456;DHT22;75846;43.732;10.404;2024-02-21T04:25:36;4.80;99.90
85456;DHT22;75846;43.732;10.404;2024-02-21T04:28:04;4.80;99.90
85456;DHT22;75846;43.732;10.404;2024-02-21T04:30:32;4.80;99.90
85456;DHT22;75846;43.732;10.404;2024-02-21T04:32:59;4.80;99.90
85456;DHT22;75846;43.732;10.404;2024-02-21T04:35:26;4.80;99.90
85456;DHT22;75846;43.732;10.404;2024-02-21T04:37:54;4.70;99.90
85456;DHT22;75846;43.732;10.404;2024-02-21T04:40:22;4.70;99.90
85456;DHT22;75846;43.732;10.404;2024-02-21T04:42:50;4.80;99.90
85456;DHT22;75846;43.732;10.404;2024-02-21T04:45:18;4.80;99.90
85456;DHT22;75846;43.732;10.404;2024-02-21T04:47:45;4.80;99.90
85456;DHT22;75846;43.732;10.404;2024-02-21T04:50:12;4.90;99.90
85456;DHT22;75846;43.732;10.404;2024-02-21T04:52:40;4.80;99.90
85456;DHT22;75846;43.732;10.404;2024-02-21T04:55:07;4.80;99.90
85456;DHT22;75846;43.732;10.404;2024-02-21T04:57:35;4.80;99.90
85456;DHT22;75846;43.732;10.404;2024-02-21T05:00:05;4.80;99.90
85456;DHT22;75846;43.732;10.404;2024-02-21T05:02:32;4.80;99.90
85456;DHT22;75846;43.732;10.404;2024-02-21T05:05:00;4.70;99.90
85456;DHT22;75846;43.732;10.404;2024-02-21T05:07:28;4.70;99.90
85456;DHT22;75846;43.732;10.404;2024-02-21T05:09:55;4.70;99.90
85456;DHT22;75846;43.732;10.404;2024-02-21T05:12:22;4.70;99.90
85456;DHT22;75846;43.732;10.404;2024-02-21T05:14:49;4.70;99.90
85456;DHT22;75846;43.732;10.404;2024-02-21T05:17:18;4.60;99.90
85456;DHT22;75846;43.732;10.404;2024-02-21T05:19:45;4.60;99.90
85456;DHT22;75846;43.732;10.404;2024-02-21T05:22:13;4.60;99.90
85456;DHT22;75846;43.732;10.404;2024-02-21T05:24:40;4.50;99.90
85456;DHT22;75846;43.732;10.404;2024-02-21T05:27:07;4.50;99.90
85456;DHT22;75846;43.732;10.404;2024-02-21T05:29:35;4.50;99.90
85456;DHT22;75846;43.732;10.404;2024-02-21T05:32:02;4.50;99.90
85456;DHT22;75846;43.732;10.404;2024-02-21T05:34:31;4.40;99.90
85456;DHT22;75846;43.732;10.404;2024-02-21T05:36:59;4.40;99.90
85456;DHT22;75846;43.732;10.404;2024-02-21T05:39:26;4.30;99.90
85456;DHT22;75846;43.732;10.404;2024-02-21T05:41:55;4.30;99.90
85456;DHT22;75846;43.732;10.404;2024-02-21T05:44:22;4.30;99.90
85456;DHT22;75846;43.732;10.404;2024-02-21T05:46:50;4.20;99.90
85456;DHT22;75846;43.732;10.404;2024-02-21T05:49:17;4.20;99.90
85456;DHT22;75846;43.732;10.404;2024-02-21T05:51:46;4.20;99.90
85456;DHT22;75846;43.732;10.404;2024-02-21T05:54:13;4.20;99.90
85456;DHT22;75846;43.732;10.404;2024-02-21T05:56:44;4.10;99.90
85456;DHT22;75846;43.732;10.404;2024-02-21T05:59:11;4.10;99.90
85456;DHT22;75846;43.732;10.404;2024-02-21T06:01:39;4.10;99.90
85456;DHT22;75846;43.732;10.404;2024-02-21T06:04:05;4.10;99.90
85456;DHT22;75846;43.732;10.404;2024-02-21T06:06:32;4.10;99.90
85456;DHT22;75846;43.732;10.404;2024-02-21T06:09:01;4.00;99.90
85456;DHT22;75846;43.732;10.404;2024-02-21T06:11:29;4.10;99.90
85456;DHT22;75846;43.732;10.404;2024-02-21T06:13:56;4.10;99.90
85456;DHT22;75846;43.732;10.404;2024-02-21T06:16:23;4.10;99.90
85456;DHT22;75846;43.732;10.404;2024-02-21T06:18:51;4.10;99.90
85456;DHT22;75846;43.732;10.404;2024-02-21T06:21:18;4.10;99.90
85456;DHT22;75846;43.732;10.404;2024-02-21T06:23:45;4.10;99.90
85456;DHT22;75846;43.732;10.404;2024-02-21T06:26:14;4.10;99.90
85456;DHT22;75846;43.732;10.404;2024-02-21T06:28:41;4.10;99.90
85456;DHT22;75846;43.732;10.404;2024-02-21T06:31:08;4.20;99.90
85456;DHT22;75846;43.732;10.404;2024-02-21T06:33:36;4.20;99.90
85456;DHT22;75846;43.732;10.404;2024-02-21T06:36:03;4.30;99.90
85456;DHT22;75846;43.732;10.404;2024-02-21T06:38:31;4.30;99.90
85456;DHT22;75846;43.732;10.404;2024-02-21T06:40:59;4.40;99.90
85456;DHT22;75846;43.732;10.404;2024-02-21T06:43:29;4.40;99.90
85456;DHT22;75846;43.732;10.404;2024-02-21T06:45:57;4.40;99.90
85456;DHT22;75846;43.732;10.404;2024-02-21T06:48:24;4.40;99.90
85456;DHT22;75846;43.732;10.404;2024-02-21T06:50:51;4.50;99.90
85456;DHT22;75846;43.732;10.404;2024-02-21T06:53:18;4.70;99.90
85456;DHT22;75846;43.732;10.404;2024-02-21T06:55:45;4.60;99.90
85456;DHT22;75846;43.732;10.404;2024-02-21T06:58:13;4.70;99.90
85456;DHT22;75846;43.732;10.404;2024-02-21T07:00:42;4.80;99.90
85456;DHT22;75846;43.732;10.404;2024-02-21T07:03:10;4.90;99.90
85456;DHT22;75846;43.732;10.404;2024-02-21T07:05:37;5.00;99.90
85456;DHT22;75846;43.732;10.404;2024-02-21T07:08:04;5.10;99.90
85456;DHT22;75846;43.732;10.404;2024-02-21T07:10:31;5.20;99.90
85456;DHT22;75846;43.732;10.404;2024-02-21T07:12:59;5.30;99.90
85456;DHT22;75846;43.732;10.404;2024-02-21T07:15:26;5.40;99.90
85456;DHT22;75846;43.732;10.404;2024-02-21T07:17:57;5.50;99.90
85456;DHT22;75846;43.732;10.404;2024-02-21T07:20:24;5.60;99.90
85456;DHT22;75846;43.732;10.404;2024-02-21T07:22:52;5.70;99.90
85456;DHT22;75846;43.732;10.404;2024-02-21T07:25:19;5.90;99.90
85456;DHT22;75846;43.732;10.404;2024-02-21T07:27:46;6.00;99.90
85456;DHT22;75846;43.732;10.404;2024-02-21T07:30:14;6.20;99.90
85456;DHT22;75846;43.732;10.404;2024-02-21T07:32:41;6.50;99.90
85456;DHT22;75846;43.732;10.404;2024-02-21T07:35:10;6.80;99.90
85456;DHT22;75846;43.732;10.404;2024-02-21T07:37:38;7.00;99.90
85456;DHT22;75846;43.732;10.404;2024-02-21T07:40:06;7.20;99.90
85456;DHT22;75846;43.732;10.404;2024-02-21T07:42:39;7.80;99.90
85456;DHT22;75846;43.732;10.404;2024-02-21T07:45:06;9.70;99.90
85456;DHT22;75846;43.732;10.404;2024-02-21T07:47:34;11.20;99.90
85456;DHT22;75846;43.732;10.404;2024-02-21T07:50:02;13.10;99.90
85456;DHT22;75846;43.732;10.404;2024-02-21T07:52:31;15.10;99.90
85456;DHT22;75846;43.732;10.404;2024-02-21T07:54:58;17.20;99.90
85456;DHT22;75846;43.732;10.404;2024-02-21T07:57:26;17.80;99.90
85456;DHT22;75846;43.732;10.404;2024-02-21T07:59:55;19.00;99.90
85456;DHT22;75846;43.732;10.404;2024-02-21T08:02:22;18.80;99.90
85456;DHT22;75846;43.732;10.404;2024-02-21T08:04:49;20.20;97.70
85456;DHT22;75846;43.732;10.404;2024-02-21T08:07:16;20.70;96.30
85456;DHT22;75846;43.732;10.404;2024-02-21T08:09:45;21.80;95.80
85456;DHT22;75846;43.732;10.404;2024-02-21T08:12:13;22.10;94.70
85456;DHT22;75846;43.732;10.404;2024-02-21T08:14:40;23.00;94.30
85456;DHT22;75846;43.732;10.404;2024-02-21T08:17:07;23.90;91.50
85456;DHT22;75846;43.732;10.404;2024-02-21T08:19:34;24.60;91.00
85456;DHT22;75846;43.732;10.404;2024-02-21T08:22:02;25.20;90.00
85456;DHT22;75846;43.732;10.404;2024-02-21T08:24:30;25.60;86.20
85456;DHT22;75846;43.732;10.404;2024-02-21T08:26:58;26.30;81.60
85456;DHT22;75846;43.732;10.404;2024-02-21T08:29:26;25.20;84.20
85456;DHT22;75846;43.732;10.404;2024-02-21T08:31:53;24.10;81.60
85456;DHT22;75846;43.732;10.404;2024-02-21T08:34:20;24.50;86.60
85456;DHT22;75846;43.732;10.404;2024-02-21T08:36:48;24.40;82.80
85456;DHT22;75846;43.732;10.404;2024-02-21T08:39:15;25.20;81.60
85456;DHT22;75846;43.732;10.404;2024-02-21T08:41:43;24.80;83.60
85456;DHT22;75846;43.732;10.404;2024-02-21T08:44:12;23.10;89.50
85456;DHT22;75846;43.732;10.404;2024-02-21T08:46:39;21.60;90.60
85456;DHT22;75846;43.732;10.404;2024-02-21T08:49:06;22.20;88.90
85456;DHT22;75846;43.732;10.404;2024-02-21T08:51:33;23.90;85.10
85456;DHT22;75846;43.732;10.404;2024-02-21T08:54:01;24.20;86.50
85456;DHT22;75846;43.732;10.404;2024-02-21T08:56:30;22.70;88.80
85456;DHT22;75846;43.732;10.404;2024-02-21T08:58:57;20.90;89.80
85456;DHT22;75846;43.732;10.404;2024-02-21T09:01:26;19.40;91.80
85456;DHT22;75846;43.732;10.404;2024-02-21T09:03:54;18.40;93.30
85456;DHT22;75846;43.732;10.404;2024-02-21T09:06:22;17.60;93.80
85456;DHT22;75846;43.732;10.404;2024-02-21T09:08:49;17.20;94.30
85456;DHT22;75846;43.732;10.404;2024-02-21T09:11:17;16.60;96.40
85456;DHT22;75846;43.732;10.404;2024-02-21T09:13:44;16.00;96.10
85456;DHT22;75846;43.732;10.404;2024-02-21T09:16:11;15.20;97.60
85456;DHT22;75846;43.732;10.404;2024-02-21T09:18:40;15.50;97.80
85456;DHT22;75846;43.732;10.404;2024-02-21T09:21:08;15.70;95.70
85456;DHT22;75846;43.732;10.404;2024-02-21T09:23:35;15.80;97.50
85456;DHT22;75846;43.732;10.404;2024-02-21T09:26:02;16.10;96.90
85456;DHT22;75846;43.732;10.404;2024-02-21T09:28:30;16.10;97.00
85456;DHT22;75846;43.732;10.404;2024-02-21T09:30:59;16.20;97.60
85456;DHT22;75846;43.732;10.404;2024-02-21T09:33:26;16.80;97.20
85456;DHT22;75846;43.732;10.404;2024-02-21T09:35:54;19.30;94.80
85456;DHT22;75846;43.732;10.404;2024-02-21T09:38:22;20.60;92.20
85456;DHT22;75846;43.732;10.404;2024-02-21T09:40:56;19.10;92.70
85456;DHT22;75846;43.732;10.404;2024-02-21T09:43:26;18.60;94.20
85456;DHT22;75846;43.732;10.404;2024-02-21T09:45:55;19.30;92.90
85456;DHT22;75846;43.732;10.404;2024-02-21T09:48:53;21.90;90.70
85456;DHT22;75846;43.732;10.404;2024-02-21T09:51:29;24.10;86.70
85456;DHT22;75846;43.732;10.404;2024-02-21T09:53:58;26.20;82.80
85456;DHT22;75846;43.732;10.404;2024-02-21T09:56:26;27.00;78.90
85456;DHT22;75846;43.732;10.404;2024-02-21T09:58:54;24.90;76.00
85456;DHT22;75846;43.732;10.404;2024-02-21T10:01:21;24.60;78.40
85456;DHT22;75846;43.732;10.404;2024-02-21T10:03:48;25.50;80.00
85456;DHT22;75846;43.732;10.404;2024-02-21T10:06:15;27.70;74.60
85456;DHT22;75846;43.732;10.404;2024-02-21T10:08:52;28.30;72.60
85456;DHT22;75846;43.732;10.404;2024-02-21T10:11:22;27.90;68.60
85456;DHT22;75846;43.732;10.404;2024-02-21T10:13:50;26.20;71.80
85456;DHT22;75846;43.732;10.404;2024-02-21T10:16:17;26.20;70.90
85456;DHT22;75846;43.732;10.404;2024-02-21T10:18:45;27.00;71.00
85456;DHT22;75846;43.732;10.404;2024-02-21T10:21:12;26.70;69.30
85456;DHT22;75846;43.732;10.404;2024-02-21T10:23:45;26.30;73.60
85456;DHT22;75846;43.732;10.404;2024-02-21T10:26:12;26.00;72.20
85456;DHT22;75846;43.732;10.404;2024-02-21T10:28:40;27.00;71.40
85456;DHT22;75846;43.732;10.404;2024-02-21T10:31:09;26.40;69.70
85456;DHT22;75846;43.732;10.404;2024-02-21T10:33:37;27.90;74.20
85456;DHT22;75846;43.732;10.404;2024-02-21T10:36:08;29.30;68.20
85456;DHT22;75846;43.732;10.404;2024-02-21T10:38:37;29.30;70.30
85456;DHT22;75846;43.732;10.404;2024-02-21T10:41:06;29.70;68.10
85456;DHT22;75846;43.732;10.404;2024-02-21T10:43:38;29.20;63.00
85456;DHT22;75846;43.732;10.404;2024-02-21T10:46:07;28.20;66.70
85456;DHT22;75846;43.732;10.404;2024-02-21T10:48:43;27.70;64.10
85456;DHT22;75846;43.732;10.404;2024-02-21T10:51:15;28.60;65.70
85456;DHT22;75846;43.732;10.404;2024-02-21T10:53:50;28.10;67.60
85456;DHT22;75846;43.732;10.404;2024-02-21T10:56:29;28.50;63.30
85456;DHT22;75846;43.732;10.404;2024-02-21T10:58:58;29.50;64.70
85456;DHT22;75846;43.732;10.404;2024-02-21T11:01:26;29.50;64.20
85456;DHT22;75846;43.732;10.404;2024-02-21T11:03:59;29.90;63.90
85456;DHT22;75846;43.732;10.404;2024-02-21T11:06:29;29.30;63.40
85456;DHT22;75846;43.732;10.404;2024-02-21T11:09:03;28.50;63.00
85456;DHT22;75846;43.732;10.404;2024-02-21T11:11:34;27.90;62.90
85456;DHT22;75846;43.732;10.404;2024-02-21T11:14:10;27.10;62.80
85456;DHT22;75846;43.732;10.404;2024-02-21T11:16:41;27.50;65.40
85456;DHT22;75846;43.732;10.404;2024-02-21T11:19:09;28.70;63.20
85456;DHT22;75846;43.732;10.404;2024-02-21T11:21:37;30.20;60.80
85456;DHT22;75846;43.732;10.404;2024-02-21T11:24:05;30.60;58.70
85456;DHT22;75846;43.732;10.404;2024-02-21T11:26:37;30.90;57.40
85456;DHT22;75846;43.732;10.404;2024-02-21T11:29:04;30.10;57.10
85456;DHT22;75846;43.732;10.404;2024-02-21T11:31:41;29.50;58.10
85456;DHT22;75846;43.732;10.404;2024-02-21T11:34:09;29.20;55.90
85456;DHT22;75846;43.732;10.404;2024-02-21T11:36:46;28.80;56.60
85456;DHT22;75846;43.732;10.404;2024-02-21T11:39:18;30.40;56.10
85456;DHT22;75846;43.732;10.404;2024-02-21T11:41:47;30.90;56.50
85456;DHT22;75846;43.732;10.404;2024-02-21T11:44:15;30.30;55.50
85456;DHT22;75846;43.732;10.404;2024-02-21T11:46:42;28.60;56.70
85456;DHT22;75846;43.732;10.404;2024-02-21T11:49:10;29.50;58.40
85456;DHT22;75846;43.732;10.404;2024-02-21T11:51:37;29.40;55.90
85456;DHT22;75846;43.732;10.404;2024-02-21T11:54:06;28.40;58.70
85456;DHT22;75846;43.732;10.404;2024-02-21T11:56:35;28.90;58.50
85456;DHT22;75846;43.732;10.404;2024-02-21T11:59:03;29.40;58.10
85456;DHT22;75846;43.732;10.404;2024-02-21T12:01:32;28.50;57.60
85456;DHT22;75846;43.732;10.404;2024-02-21T12:03:59;27.40;58.40
85456;DHT22;75846;43.732;10.404;2024-02-21T12:06:26;27.60;59.10
85456;DHT22;75846;43.732;10.404;2024-02-21T12:08:58;26.30;61.00
85456;DHT22;75846;43.732;10.404;2024-02-21T12:11:25;26.10;62.00
85456;DHT22;75846;43.732;10.404;2024-02-21T12:13:59;25.60;62.00
85456;DHT22;75846;43.732;10.404;2024-02-21T12:16:31;23.90;63.00
85456;DHT22;75846;43.732;10.404;2024-02-21T12:18:59;22.00;68.80
85456;DHT22;75846;43.732;10.404;2024-02-21T12:21:27;21.00;72.20
85456;DHT22;75846;43.732;10.404;2024-02-21T12:23:58;19.90;75.10
85456;DHT22;75846;43.732;10.404;2024-02-21T12:26:26;19.30;72.10
85456;DHT22;75846;43.732;10.404;2024-02-21T12:28:53;19.10;75.30
85456;DHT22;75846;43.732;10.404;2024-02-21T12:31:21;19.00;76.40
85456;DHT22;75846;43.732;10.404;2024-02-21T12:33:50;18.90;79.50
85456;DHT22;75846;43.732;10.404;2024-02-21T12:36:19;18.80;79.10
85456;DHT22;75846;43.732;10.404;2024-02-21T12:38:46;18.80;81.40
85456;DHT22;75846;43.732;10.404;2024-02-21T12:41:14;18.50;81.50
85456;DHT22;75846;43.732;10.404;2024-02-21T12:43:41;18.30;82.00
85456;DHT22;75846;43.732;10.404;2024-02-21T12:46:09;18.20;83.00
85456;DHT22;75846;43.732;10.404;2024-02-21T12:48:36;17.90;82.70
85456;DHT22;75846;43.732;10.404;2024-02-21T12:51:05;17.90;86.20
85456;DHT22;75846;43.732;10.404;2024-02-21T12:53:33;17.90;86.70
85456;DHT22;75846;43.732;10.404;2024-02-21T12:56:00;17.90;85.40
85456;DHT22;75846;43.732;10.404;2024-02-21T12:58:28;17.90;87.00
85456;DHT22;75846;43.732;10.404;2024-02-21T13:00:57;18.00;85.60
85456;DHT22;75846;43.732;10.404;2024-02-21T13:03:24;18.40;79.40
85456;DHT22;75846;43.732;10.404;2024-02-21T13:05:52;18.90;78.70
85456;DHT22;75846;43.732;10.404;2024-02-21T13:08:20;19.50;76.00
85456;DHT22;75846;43.732;10.404;2024-02-21T13:10:48;20.00;74.60
85456;DHT22;75846;43.732;10.404;2024-02-21T13:13:16;20.00;71.90
85456;DHT22;75846;43.732;10.404;2024-02-21T13:15:43;19.70;73.40
85456;DHT22;75846;43.732;10.404;2024-02-21T13:18:10;19.30;74.00
85456;DHT22;75846;43.732;10.404;2024-02-21T13:20:38;19.00;73.40
85456;DHT22;75846;43.732;10.404;2024-02-21T13:23:05;18.70;74.50
85456;DHT22;75846;43.732;10.404;2024-02-21T13:25:34;18.80;74.20
85456;DHT22;75846;43.732;10.404;2024-02-21T13:28:01;18.80;73.50
85456;DHT22;75846;43.732;10.404;2024-02-21T13:30:29;18.80;72.40
85456;DHT22;75846;43.732;10.404;2024-02-21T13:32:56;18.70;73.10
85456;DHT22;75846;43.732;10.404;2024-02-21T13:35:23;19.00;74.60
85456;DHT22;75846;43.732;10.404;2024-02-21T13:37:51;19.30;73.40
85456;DHT22;75846;43.732;10.404;2024-02-21T13:40:18;20.00;73.20
85456;DHT22;75846;43.732;10.404;2024-02-21T13:42:47;20.60;71.90
85456;DHT22;75846;43.732;10.404;2024-02-21T13:45:15;20.70;71.40
85456;DHT22;75846;43.732;10.404;2024-02-21T13:47:42;21.40;70.20
85456;DHT22;75846;43.732;10.404;2024-02-21T13:50:10;21.90;69.40
85456;DHT22;75846;43.732;10.404;2024-02-21T13:52:37;22.80;70.40
85456;DHT22;75846;43.732;10.404;2024-02-21T13:55:05;23.10;68.90
85456;DHT22;75846;43.732;10.404;2024-02-21T13:57:34;23.50;66.80
85456;DHT22;75846;43.732;10.404;2024-02-21T14:00:03;23.60;68.20
85456;DHT22;75846;43.732;10.404;2024-02-21T14:02:31;22.80;68.30
85456;DHT22;75846;43.732;10.404;2024-02-21T14:04:58;22.50;66.20
85456;DHT22;75846;43.732;10.404;2024-02-21T14:07:26;22.50;67.20
85456;DHT22;75846;43.732;10.404;2024-02-21T14:09:53;22.70;68.00
85456;DHT22;75846;43.732;10.404;2024-02-21T14:12:20;23.00;66.10
85456;DHT22;75846;43.732;10.404;2024-02-21T14:14:47;23.00;66.30
85456;DHT22;75846;43.732;10.404;2024-02-21T14:17:17;23.00;65.20
85456;DHT22;75846;43.732;10.404;2024-02-21T14:19:46;22.90;65.60
85456;DHT22;75846;43.732;10.404;2024-02-21T14:22:13;23.00;66.50
85456;DHT22;75846;43.732;10.404;2024-02-21T14:24:40;23.00;67.70
85456;DHT22;75846;43.732;10.404;2024-02-21T14:27:07;22.80;67.20
85456;DHT22;75846;43.732;10.404;2024-02-21T14:29:35;22.50;66.40
85456;DHT22;75846;43.732;10.404;2024-02-21T14:32:03;21.50;68.20
85456;DHT22;75846;43.732;10.404;2024-02-21T14:34:33;20.80;68.60
85456;DHT22;75846;43.732;10.404;2024-02-21T14:37:00;20.20;68.40
85456;DHT22;75846;43.732;10.404;2024-02-21T14:39:27;20.30;68.50
85456;DHT22;75846;43.732;10.404;2024-02-21T14:41:54;20.80;71.30
85456;DHT22;75846;43.732;10.404;2024-02-21T14:44:22;21.50;68.30
85456;DHT22;75846;43.732;10.404;2024-02-21T14:46:49;21.70;69.20
85456;DHT22;75846;43.732;10.404;2024-02-21T14:49:16;21.90;68.30
85456;DHT22;75846;43.732;10.404;2024-02-21T14:51:46;21.70;68.80
85456;DHT22;75846;43.732;10.404;2024-02-21T14:54:13;21.50;67.80
85456;DHT22;75846;43.732;10.404;2024-02-21T14:56:41;21.90;71.10
85456;DHT22;75846;43.732;10.404;2024-02-21T14:59:09;21.90;68.70
85456;DHT22;75846;43.732;10.404;2024-02-21T15:01:36;21.50;69.60
85456;DHT22;75846;43.732;10.404;2024-02-21T15:04:05;20.90;68.40
85456;DHT22;75846;43.732;10.404;2024-02-21T15:06:33;19.90;68.30
85456;DHT22;75846;43.732;10.404;2024-02-21T15:09:03;19.40;70.00
85456;DHT22;75846;43.732;10.404;2024-02-21T15:11:31;19.30;71.70
85456;DHT22;75846;43.732;10.404;2024-02-21T15:13:59;19.30;71.90
85456;DHT22;75846;43.732;10.404;2024-02-21T15:16:26;19.20;70.60
85456;DHT22;75846;43.732;10.404;2024-02-21T15:18:54;19.10;73.30
85456;DHT22;75846;43.732;10.404;2024-02-21T15:21:21;18.50;72.90
85456;DHT22;75846;43.732;10.404;2024-02-21T15:23:49;18.20;74.70
85456;DHT22;75846;43.732;10.404;2024-02-21T15:26:17;18.00;76.80
85456;DHT22;75846;43.732;10.404;2024-02-21T15:28:44;17.60;72.70